sensor_id;sensor_type;location;lat;lon;timestamp;P1;durP1;ratioP1;P2;durP2;ratioP2
58354;SDS011;44160;49.080;19.302;2023-06-14T00:00:21;3.30;;;2.10;;
58354;SDS011;44160;49.080;19.302;2023-06-14T00:02:47;3.38;;;2.10;;
58354;SDS011;44160;49.080;19.302;2023-06-14T00:05:13;4.63;;;2.05;;
58354;SDS011;44160;49.080;19.302;2023-06-14T00:07:40;4.80;;;3.05;;
58354;SDS011;44160;49.080;19.302;2023-06-14T00:10:12;2.97;;;2.15;;
58354;SDS011;44160;49.080;19.302;2023-06-14T00:12:38;5.18;;;3.17;;
58354;SDS011;44160;49.080;19.302;2023-06-14T00:15:05;5.25;;;2.20;;
58354;SDS011;44160;49.080;19.302;2023-06-14T00:17:31;4.15;;;2.50;;
58354;SDS011;44160;49.080;19.302;2023-06-14T00:19:57;5.55;;;2.30;;
58354;SDS011;44160;49.080;19.302;2023-06-14T00:22:24;3.53;;;2.28;;
58354;SDS011;44160;49.080;19.302;2023-06-14T00:24:53;4.03;;;2.13;;
58354;SDS011;44160;49.080;19.302;2023-06-14T00:27:19;3.40;;;1.85;;
58354;SDS011;44160;49.080;19.302;2023-06-14T00:29:45;4.82;;;2.28;;
58354;SDS011;44160;49.080;19.302;2023-06-14T00:32:11;4.28;;;2.20;;
58354;SDS011;44160;49.080;19.302;2023-06-14T00:34:37;4.47;;;2.10;;
58354;SDS011;44160;49.080;19.302;2023-06-14T00:37:04;3.35;;;2.17;;
58354;SDS011;44160;49.080;19.302;2023-06-14T00:39:30;2.45;;;1.92;;
58354;SDS011;44160;49.080;19.302;2023-06-14T00:41:56;3.17;;;2.20;;
58354;SDS011;44160;49.080;19.302;2023-06-14T00:44:22;3.50;;;2.10;;
58354;SDS011;44160;49.080;19.302;2023-06-14T00:46:49;3.42;;;2.00;;
58354;SDS011;44160;49.080;19.302;2023-06-14T00:49:15;3.03;;;2.22;;
58354;SDS011;44160;49.080;19.302;2023-06-14T00:51:42;5.22;;;2.25;;
58354;SDS011;44160;49.080;19.302;2023-06-14T00:54:08;2.53;;;1.73;;
58354;SDS011;44160;49.080;19.302;2023-06-14T00:56:37;2.85;;;2.08;;
58354;SDS011;44160;49.080;19.302;2023-06-14T00:59:04;5.47;;;2.08;;
58354;SDS011;44160;49.080;19.302;2023-06-14T01:01:30;3.03;;;2.10;;
58354;SDS011;44160;49.080;19.302;2023-06-14T01:03:58;4.80;;;2.30;;
58354;SDS011;44160;49.080;19.302;2023-06-14T01:06:36;8.85;;;2.58;;
58354;SDS011;44160;49.080;19.302;2023-06-14T01:11:37;4.72;;;2.22;;
58354;SDS011;44160;49.080;19.302;2023-06-14T01:14:03;2.47;;;2.05;;
58354;SDS011;44160;49.080;19.302;2023-06-14T01:16:30;3.72;;;2.50;;
58354;SDS011;44160;49.080;19.302;2023-06-14T01:18:57;6.13;;;2.50;;
58354;SDS011;44160;49.080;19.302;2023-06-14T01:21:24;3.90;;;2.22;;
58354;SDS011;44160;49.080;19.302;2023-06-14T01:23:51;4.97;;;2.40;;
58354;SDS011;44160;49.080;19.302;2023-06-14T01:26:24;4.65;;;2.17;;
58354;SDS011;44160;49.080;19.302;2023-06-14T01:28:51;3.45;;;2.08;;
58354;SDS011;44160;49.080;19.302;2023-06-14T01:31:23;6.97;;;2.38;;
58354;SDS011;44160;49.080;19.302;2023-06-14T01:33:49;3.47;;;2.35;;
58354;SDS011;44160;49.080;19.302;2023-06-14T01:36:16;7.03;;;2.30;;
58354;SDS011;44160;49.080;19.302;2023-06-14T01:38:44;2.83;;;2.20;;
58354;SDS011;44160;49.080;19.302;2023-06-14T01:41:11;5.88;;;2.63;;
58354;SDS011;44160;49.080;19.302;2023-06-14T01:43:37;3.17;;;2.47;;
58354;SDS011;44160;49.080;19.302;2023-06-14T01:46:04;2.50;;;2.10;;
58354;SDS011;44160;49.080;19.302;2023-06-14T01:48:32;6.07;;;2.47;;
58354;SDS011;44160;49.080;19.302;2023-06-14T01:50:58;4.22;;;2.17;;
58354;SDS011;44160;49.080;19.302;2023-06-14T01:53:24;4.70;;;2.60;;
58354;SDS011;44160;49.080;19.302;2023-06-14T01:55:50;3.65;;;2.60;;
58354;SDS011;44160;49.080;19.302;2023-06-14T01:58:19;3.35;;;2.00;;
58354;SDS011;44160;49.080;19.302;2023-06-14T02:00:45;2.75;;;2.22;;
58354;SDS011;44160;49.080;19.302;2023-06-14T02:03:12;3.50;;;2.22;;
58354;SDS011;44160;49.080;19.302;2023-06-14T02:05:38;5.57;;;2.25;;
58354;SDS011;44160;49.080;19.302;2023-06-14T02:08:05;6.57;;;2.60;;
58354;SDS011;44160;49.080;19.302;2023-06-14T02:10:31;4.65;;;2.20;;
58354;SDS011;44160;49.080;19.302;2023-06-14T02:12:57;3.60;;;2.03;;
58354;SDS011;44160;49.080;19.302;2023-06-14T02:15:23;5.22;;;2.35;;
58354;SDS011;44160;49.080;19.302;2023-06-14T02:17:49;3.17;;;2.25;;
58354;SDS011;44160;49.080;19.302;2023-06-14T02:20:15;5.10;;;2.80;;
58354;SDS011;44160;49.080;19.302;2023-06-14T02:22:41;6.47;;;2.70;;
58354;SDS011;44160;49.080;19.302;2023-06-14T02:25:08;5.03;;;2.40;;
58354;SDS011;44160;49.080;19.302;2023-06-14T02:27:34;4.78;;;2.60;;
58354;SDS011;44160;49.080;19.302;2023-06-14T02:30:00;2.58;;;2.00;;
58354;SDS011;44160;49.080;19.302;2023-06-14T02:32:27;4.97;;;2.15;;
58354;SDS011;44160;49.080;19.302;2023-06-14T02:34:53;3.65;;;3.03;;
58354;SDS011;44160;49.080;19.302;2023-06-14T02:37:19;4.68;;;2.53;;
58354;SDS011;44160;49.080;19.302;2023-06-14T02:39:45;7.78;;;2.95;;
58354;SDS011;44160;49.080;19.302;2023-06-14T02:42:11;4.30;;;2.80;;
58354;SDS011;44160;49.080;19.302;2023-06-14T02:44:37;5.35;;;2.40;;
58354;SDS011;44160;49.080;19.302;2023-06-14T02:47:04;3.55;;;2.45;;
58354;SDS011;44160;49.080;19.302;2023-06-14T02:49:30;4.95;;;3.00;;
58354;SDS011;44160;49.080;19.302;2023-06-14T02:51:56;5.13;;;2.58;;
58354;SDS011;44160;49.080;19.302;2023-06-14T02:54:22;5.30;;;2.53;;
58354;SDS011;44160;49.080;19.302;2023-06-14T02:56:48;4.63;;;2.75;;
58354;SDS011;44160;49.080;19.302;2023-06-14T02:59:15;4.40;;;2.80;;
58354;SDS011;44160;49.080;19.302;2023-06-14T03:01:42;6.10;;;2.63;;
58354;SDS011;44160;49.080;19.302;2023-06-14T03:04:08;3.90;;;2.60;;
58354;SDS011;44160;49.080;19.302;2023-06-14T03:06:34;6.75;;;3.08;;
58354;SDS011;44160;49.080;19.302;2023-06-14T03:09:01;3.33;;;2.65;;
58354;SDS011;44160;49.080;19.302;2023-06-14T03:11:31;6.18;;;3.28;;
58354;SDS011;44160;49.080;19.302;2023-06-14T03:59:52;3.35;;;2.22;;
58354;SDS011;44160;49.080;19.302;2023-06-14T04:02:18;4.20;;;2.30;;
58354;SDS011;44160;49.080;19.302;2023-06-14T04:04:44;5.35;;;2.35;;
58354;SDS011;44160;49.080;19.302;2023-06-14T04:07:13;3.65;;;2.30;;
58354;SDS011;44160;49.080;19.302;2023-06-14T04:09:40;4.20;;;2.38;;
58354;SDS011;44160;49.080;19.302;2023-06-14T04:12:07;3.53;;;2.00;;
58354;SDS011;44160;49.080;19.302;2023-06-14T04:14:34;2.80;;;2.25;;
58354;SDS011;44160;49.080;19.302;2023-06-14T04:17:01;3.78;;;2.33;;
58354;SDS011;44160;49.080;19.302;2023-06-14T04:19:28;3.50;;;2.30;;
58354;SDS011;44160;49.080;19.302;2023-06-14T04:21:54;3.28;;;2.10;;
58354;SDS011;44160;49.080;19.302;2023-06-14T04:24:20;7.10;;;2.47;;
58354;SDS011;44160;49.080;19.302;2023-06-14T04:26:48;3.47;;;2.05;;
58354;SDS011;44160;49.080;19.302;2023-06-14T04:29:16;4.15;;;2.40;;
58354;SDS011;44160;49.080;19.302;2023-06-14T04:31:54;2.67;;;2.10;;
58354;SDS011;44160;49.080;19.302;2023-06-14T04:34:23;3.70;;;2.22;;
58354;SDS011;44160;49.080;19.302;2023-06-14T04:36:54;3.38;;;1.95;;
58354;SDS011;44160;49.080;19.302;2023-06-14T04:39:20;3.20;;;2.13;;
58354;SDS011;44160;49.080;19.302;2023-06-14T04:41:47;3.47;;;2.20;;
58354;SDS011;44160;49.080;19.302;2023-06-14T04:44:16;3.53;;;2.15;;
58354;SDS011;44160;49.080;19.302;2023-06-14T04:46:43;15.60;;;2.55;;
58354;SDS011;44160;49.080;19.302;2023-06-14T04:49:14;4.00;;;2.63;;
58354;SDS011;44160;49.080;19.302;2023-06-14T04:51:44;6.75;;;2.40;;
58354;SDS011;44160;49.080;19.302;2023-06-14T04:54:12;4.50;;;2.15;;
58354;SDS011;44160;49.080;19.302;2023-06-14T04:56:39;3.55;;;2.90;;
58354;SDS011;44160;49.080;19.302;2023-06-14T04:59:05;4.45;;;2.45;;
58354;SDS011;44160;49.080;19.302;2023-06-14T05:01:31;6.38;;;2.30;;
58354;SDS011;44160;49.080;19.302;2023-06-14T05:03:58;3.58;;;2.30;;
58354;SDS011;44160;49.080;19.302;2023-06-14T05:06:24;2.97;;;2.38;;
58354;SDS011;44160;49.080;19.302;2023-06-14T05:08:52;3.63;;;2.20;;
58354;SDS011;44160;49.080;19.302;2023-06-14T05:11:18;4.15;;;2.63;;
58354;SDS011;44160;49.080;19.302;2023-06-14T05:13:44;3.05;;;2.40;;
58354;SDS011;44160;49.080;19.302;2023-06-14T05:16:11;6.82;;;2.38;;
58354;SDS011;44160;49.080;19.302;2023-06-14T05:18:37;4.13;;;2.72;;
58354;SDS011;44160;49.080;19.302;2023-06-14T05:21:05;5.47;;;2.30;;
58354;SDS011;44160;49.080;19.302;2023-06-14T05:23:31;4.40;;;2.55;;
58354;SDS011;44160;49.080;19.302;2023-06-14T05:25:57;2.75;;;2.30;;
58354;SDS011;44160;49.080;19.302;2023-06-14T05:28:24;3.78;;;2.45;;
58354;SDS011;44160;49.080;19.302;2023-06-14T05:30:51;7.90;;;2.30;;
58354;SDS011;44160;49.080;19.302;2023-06-14T05:33:17;3.92;;;2.50;;
58354;SDS011;44160;49.080;19.302;2023-06-14T05:35:43;4.40;;;2.47;;
58354;SDS011;44160;49.080;19.302;2023-06-14T05:38:09;5.40;;;2.65;;
58354;SDS011;44160;49.080;19.302;2023-06-14T05:40:35;3.60;;;2.63;;
58354;SDS011;44160;49.080;19.302;2023-06-14T05:43:01;6.40;;;2.72;;
58354;SDS011;44160;49.080;19.302;2023-06-14T05:45:27;7.40;;;3.03;;
58354;SDS011;44160;49.080;19.302;2023-06-14T05:47:53;6.35;;;3.05;;
58354;SDS011;44160;49.080;19.302;2023-06-14T05:50:20;6.93;;;3.35;;
58354;SDS011;44160;49.080;19.302;2023-06-14T05:52:46;4.88;;;2.83;;
58354;SDS011;44160;49.080;19.302;2023-06-14T05:55:12;7.28;;;3.35;;
58354;SDS011;44160;49.080;19.302;2023-06-14T05:57:38;6.95;;;3.33;;
58354;SDS011;44160;49.080;19.302;2023-06-14T06:00:05;5.50;;;2.50;;
58354;SDS011;44160;49.080;19.302;2023-06-14T06:02:41;4.95;;;2.78;;
58354;SDS011;44160;49.080;19.302;2023-06-14T06:05:08;6.80;;;3.10;;
58354;SDS011;44160;49.080;19.302;2023-06-14T06:07:34;7.35;;;3.10;;
58354;SDS011;44160;49.080;19.302;2023-06-14T06:10:01;5.68;;;2.40;;
58354;SDS011;44160;49.080;19.302;2023-06-14T06:12:27;3.83;;;2.78;;
58354;SDS011;44160;49.080;19.302;2023-06-14T06:14:53;5.47;;;3.05;;
58354;SDS011;44160;49.080;19.302;2023-06-14T06:17:20;3.33;;;2.90;;
58354;SDS011;44160;49.080;19.302;2023-06-14T06:19:46;6.20;;;2.97;;
58354;SDS011;44160;49.080;19.302;2023-06-14T06:22:12;5.82;;;3.10;;
58354;SDS011;44160;49.080;19.302;2023-06-14T06:24:38;7.93;;;2.97;;
58354;SDS011;44160;49.080;19.302;2023-06-14T06:27:04;4.50;;;3.60;;
58354;SDS011;44160;49.080;19.302;2023-06-14T06:29:33;5.22;;;3.28;;
58354;SDS011;44160;49.080;19.302;2023-06-14T06:32:03;7.90;;;3.67;;
58354;SDS011;44160;49.080;19.302;2023-06-14T06:34:31;6.55;;;3.95;;
58354;SDS011;44160;49.080;19.302;2023-06-14T06:36:57;11.82;;;3.90;;
58354;SDS011;44160;49.080;19.302;2023-06-14T06:39:23;5.70;;;4.38;;
58354;SDS011;44160;49.080;19.302;2023-06-14T06:41:51;9.57;;;4.18;;
58354;SDS011;44160;49.080;19.302;2023-06-14T06:44:17;7.45;;;4.53;;
58354;SDS011;44160;49.080;19.302;2023-06-14T06:46:43;8.40;;;4.03;;
58354;SDS011;44160;49.080;19.302;2023-06-14T06:49:09;4.30;;;3.53;;
58354;SDS011;44160;49.080;19.302;2023-06-14T06:51:42;5.10;;;3.65;;
58354;SDS011;44160;49.080;19.302;2023-06-14T06:54:08;5.57;;;4.05;;
58354;SDS011;44160;49.080;19.302;2023-06-14T06:56:35;9.75;;;4.57;;
58354;SDS011;44160;49.080;19.302;2023-06-14T06:59:03;6.05;;;4.32;;
58354;SDS011;44160;49.080;19.302;2023-06-14T07:01:29;11.10;;;5.10;;
58354;SDS011;44160;49.080;19.302;2023-06-14T07:03:55;6.70;;;3.00;;
58354;SDS011;44160;49.080;19.302;2023-06-14T07:06:21;5.05;;;3.65;;
58354;SDS011;44160;49.080;19.302;2023-06-14T07:08:47;11.93;;;4.05;;
58354;SDS011;44160;49.080;19.302;2023-06-14T07:11:14;4.40;;;3.00;;
58354;SDS011;44160;49.080;19.302;2023-06-14T07:13:40;7.07;;;3.33;;
58354;SDS011;44160;49.080;19.302;2023-06-14T07:16:06;4.82;;;2.80;;
58354;SDS011;44160;49.080;19.302;2023-06-14T07:18:32;5.10;;;3.03;;
58354;SDS011;44160;49.080;19.302;2023-06-14T07:20:58;5.40;;;3.30;;
58354;SDS011;44160;49.080;19.302;2023-06-14T07:23:26;7.60;;;3.05;;
58354;SDS011;44160;49.080;19.302;2023-06-14T07:25:52;3.75;;;2.85;;
58354;SDS011;44160;49.080;19.302;2023-06-14T07:28:18;8.52;;;2.95;;
58354;SDS011;44160;49.080;19.302;2023-06-14T07:30:44;5.70;;;2.80;;
58354;SDS011;44160;49.080;19.302;2023-06-14T07:33:10;5.10;;;2.92;;
58354;SDS011;44160;49.080;19.302;2023-06-14T07:35:37;4.50;;;2.90;;
58354;SDS011;44160;49.080;19.302;2023-06-14T07:38:03;6.13;;;3.40;;
58354;SDS011;44160;49.080;19.302;2023-06-14T07:40:29;3.85;;;2.72;;
58354;SDS011;44160;49.080;19.302;2023-06-14T07:42:55;9.18;;;2.80;;
58354;SDS011;44160;49.080;19.302;2023-06-14T07:45:21;4.63;;;2.60;;
58354;SDS011;44160;49.080;19.302;2023-06-14T07:47:48;3.45;;;2.33;;
58354;SDS011;44160;49.080;19.302;2023-06-14T07:50:15;2.63;;;2.00;;
58354;SDS011;44160;49.080;19.302;2023-06-14T07:52:41;2.75;;;1.95;;
58354;SDS011;44160;49.080;19.302;2023-06-14T07:55:07;3.60;;;2.08;;
58354;SDS011;44160;49.080;19.302;2023-06-14T07:57:33;3.78;;;1.85;;
58354;SDS011;44160;49.080;19.302;2023-06-14T08:00:00;4.78;;;2.00;;
58354;SDS011;44160;49.080;19.302;2023-06-14T08:02:29;3.00;;;1.80;;
58354;SDS011;44160;49.080;19.302;2023-06-14T08:05:00;3.28;;;1.80;;
58354;SDS011;44160;49.080;19.302;2023-06-14T08:07:28;7.60;;;2.00;;
58354;SDS011;44160;49.080;19.302;2023-06-14T08:09:54;2.85;;;1.67;;
58354;SDS011;44160;49.080;19.302;2023-06-14T08:12:20;2.75;;;1.70;;
58354;SDS011;44160;49.080;19.302;2023-06-14T08:14:47;3.70;;;2.22;;
58354;SDS011;44160;49.080;19.302;2023-06-14T08:17:13;2.58;;;1.67;;
58354;SDS011;44160;49.080;19.302;2023-06-14T08:19:39;2.22;;;1.52;;
58354;SDS011;44160;49.080;19.302;2023-06-14T08:22:06;3.08;;;2.25;;
58354;SDS011;44160;49.080;19.302;2023-06-14T08:24:32;3.55;;;2.05;;
58354;SDS011;44160;49.080;19.302;2023-06-14T08:26:58;2.55;;;1.80;;
58354;SDS011;44160;49.080;19.302;2023-06-14T08:29:26;2.17;;;1.60;;
58354;SDS011;44160;49.080;19.302;2023-06-14T08:31:54;2.47;;;1.73;;
58354;SDS011;44160;49.080;19.302;2023-06-14T08:34:20;5.35;;;1.90;;
58354;SDS011;44160;49.080;19.302;2023-06-14T08:36:48;3.08;;;1.58;;
58354;SDS011;44160;49.080;19.302;2023-06-14T08:39:14;7.07;;;1.92;;
58354;SDS011;44160;49.080;19.302;2023-06-14T08:41:40;2.75;;;1.65;;
58354;SDS011;44160;49.080;19.302;2023-06-14T08:44:07;2.70;;;1.80;;
58354;SDS011;44160;49.080;19.302;2023-06-14T08:46:34;2.78;;;1.98;;
58354;SDS011;44160;49.080;19.302;2023-06-14T08:49:02;2.17;;;1.60;;
58354;SDS011;44160;49.080;19.302;2023-06-14T08:51:29;3.47;;;2.22;;
58354;SDS011;44160;49.080;19.302;2023-06-14T08:53:59;3.13;;;1.45;;
58354;SDS011;44160;49.080;19.302;2023-06-14T08:56:30;2.90;;;1.17;;
58354;SDS011;44160;49.080;19.302;2023-06-14T08:58:59;3.75;;;1.52;;
58354;SDS011;44160;49.080;19.302;2023-06-14T09:01:30;2.22;;;1.40;;
58354;SDS011;44160;49.080;19.302;2023-06-14T09:03:56;5.13;;;1.50;;
58354;SDS011;44160;49.080;19.302;2023-06-14T09:06:29;3.25;;;1.33;;
58354;SDS011;44160;49.080;19.302;2023-06-14T09:08:55;1.73;;;1.40;;
58354;SDS011;44160;49.080;19.302;2023-06-14T09:11:22;3.20;;;1.30;;
58354;SDS011;44160;49.080;19.302;2023-06-14T09:13:48;2.20;;;1.27;;
58354;SDS011;44160;49.080;19.302;2023-06-14T09:16:16;2.35;;;1.45;;
58354;SDS011;44160;49.080;19.302;2023-06-14T09:18:43;1.48;;;1.20;;
58354;SDS011;44160;49.080;19.302;2023-06-14T09:21:10;3.67;;;1.35;;
58354;SDS011;44160;49.080;19.302;2023-06-14T09:23:46;3.05;;;1.95;;
58354;SDS011;44160;49.080;19.302;2023-06-14T09:26:13;4.18;;;1.60;;
58354;SDS011;44160;49.080;19.302;2023-06-14T09:31:12;2.50;;;1.25;;
58354;SDS011;44160;49.080;19.302;2023-06-14T09:33:38;2.13;;;1.60;;
58354;SDS011;44160;49.080;19.302;2023-06-14T09:36:12;1.55;;;1.10;;
58354;SDS011;44160;49.080;19.302;2023-06-14T09:38:39;1.90;;;1.50;;
58354;SDS011;44160;49.080;19.302;2023-06-14T09:41:06;2.70;;;1.40;;
58354;SDS011;44160;49.080;19.302;2023-06-14T09:43:32;2.67;;;1.40;;
58354;SDS011;44160;49.080;19.302;2023-06-14T09:46:03;3.85;;;1.50;;
58354;SDS011;44160;49.080;19.302;2023-06-14T09:48:29;4.50;;;2.05;;
58354;SDS011;44160;49.080;19.302;2023-06-14T09:50:56;2.00;;;1.20;;
58354;SDS011;44160;49.080;19.302;2023-06-14T09:53:23;2.95;;;1.23;;
58354;SDS011;44160;49.080;19.302;2023-06-14T09:55:57;3.75;;;1.30;;
58354;SDS011;44160;49.080;19.302;2023-06-14T09:58:24;1.50;;;1.30;;
58354;SDS011;44160;49.080;19.302;2023-06-14T10:00:52;2.15;;;1.58;;
58354;SDS011;44160;49.080;19.302;2023-06-14T10:03:29;3.13;;;1.70;;
58354;SDS011;44160;49.080;19.302;2023-06-14T10:05:58;4.20;;;1.60;;
58354;SDS011;44160;49.080;19.302;2023-06-14T10:08:27;3.75;;;2.30;;
58354;SDS011;44160;49.080;19.302;2023-06-14T10:10:55;5.65;;;2.28;;
58354;SDS011;44160;49.080;19.302;2023-06-14T10:13:21;3.15;;;1.80;;
58354;SDS011;44160;49.080;19.302;2023-06-14T10:18:25;1.85;;;1.50;;
58354;SDS011;44160;49.080;19.302;2023-06-14T10:20:58;2.10;;;1.63;;
58354;SDS011;44160;49.080;19.302;2023-06-14T10:23:29;1.90;;;1.48;;
58354;SDS011;44160;49.080;19.302;2023-06-14T10:25:56;4.53;;;1.92;;
58354;SDS011;44160;49.080;19.302;2023-06-14T10:28:25;2.85;;;1.60;;
58354;SDS011;44160;49.080;19.302;2023-06-14T10:31:08;2.42;;;1.58;;
58354;SDS011;44160;49.080;19.302;2023-06-14T10:38:58;3.67;;;1.85;;
58354;SDS011;44160;49.080;19.302;2023-06-14T10:41:25;2.20;;;1.70;;
58354;SDS011;44160;49.080;19.302;2023-06-14T10:44:06;2.40;;;1.77;;
58354;SDS011;44160;49.080;19.302;2023-06-14T10:46:36;2.50;;;1.70;;
58354;SDS011;44160;49.080;19.302;2023-06-14T10:49:02;3.20;;;1.88;;
58354;SDS011;44160;49.080;19.302;2023-06-14T10:51:29;6.57;;;2.15;;
58354;SDS011;44160;49.080;19.302;2023-06-14T10:53:56;4.43;;;2.03;;
58354;SDS011;44160;49.080;19.302;2023-06-14T10:56:28;3.35;;;2.05;;
58354;SDS011;44160;49.080;19.302;2023-06-14T10:58:55;5.67;;;2.00;;
58354;SDS011;44160;49.080;19.302;2023-06-14T11:01:23;5.13;;;2.05;;
58354;SDS011;44160;49.080;19.302;2023-06-14T11:03:52;2.13;;;1.63;;
58354;SDS011;44160;49.080;19.302;2023-06-14T11:06:19;3.83;;;1.77;;
58354;SDS011;44160;49.080;19.302;2023-06-14T11:11:17;2.85;;;2.03;;
58354;SDS011;44160;49.080;19.302;2023-06-14T11:13:44;3.00;;;1.70;;
58354;SDS011;44160;49.080;19.302;2023-06-14T11:16:14;2.33;;;1.60;;
58354;SDS011;44160;49.080;19.302;2023-06-14T11:18:41;3.90;;;1.75;;
58354;SDS011;44160;49.080;19.302;2023-06-14T11:21:08;3.03;;;1.70;;
58354;SDS011;44160;49.080;19.302;2023-06-14T11:23:35;3.53;;;1.48;;
58354;SDS011;44160;49.080;19.302;2023-06-14T11:26:02;3.25;;;1.60;;
58354;SDS011;44160;49.080;19.302;2023-06-14T11:28:39;3.05;;;1.88;;
58354;SDS011;44160;49.080;19.302;2023-06-14T11:31:06;1.92;;;1.60;;
58354;SDS011;44160;49.080;19.302;2023-06-14T11:33:32;2.58;;;1.55;;
58354;SDS011;44160;49.080;19.302;2023-06-14T11:35:58;1.85;;;1.58;;
58354;SDS011;44160;49.080;19.302;2023-06-14T11:38:27;3.83;;;1.60;;
58354;SDS011;44160;49.080;19.302;2023-06-14T11:40:59;2.13;;;1.20;;
58354;SDS011;44160;49.080;19.302;2023-06-14T11:43:29;2.03;;;1.45;;
58354;SDS011;44160;49.080;19.302;2023-06-14T11:45:58;2.50;;;1.85;;
58354;SDS011;44160;49.080;19.302;2023-06-14T11:48:35;5.15;;;1.95;;
58354;SDS011;44160;49.080;19.302;2023-06-14T11:51:03;6.07;;;1.92;;
58354;SDS011;44160;49.080;19.302;2023-06-14T11:53:30;3.08;;;1.90;;
58354;SDS011;44160;49.080;19.302;2023-06-14T11:55:57;3.13;;;1.90;;
58354;SDS011;44160;49.080;19.302;2023-06-14T11:58:25;2.42;;;1.60;;
58354;SDS011;44160;49.080;19.302;2023-06-14T12:00:52;3.92;;;1.73;;
58354;SDS011;44160;49.080;19.302;2023-06-14T12:03:28;5.07;;;1.83;;
58354;SDS011;44160;49.080;19.302;2023-06-14T12:08:33;2.30;;;1.80;;
58354;SDS011;44160;49.080;19.302;2023-06-14T12:11:04;4.30;;;1.75;;
58354;SDS011;44160;49.080;19.302;2023-06-14T12:13:30;12.65;;;1.85;;
58354;SDS011;44160;49.080;19.302;2023-06-14T12:15:56;2.20;;;1.45;;
58354;SDS011;44160;49.080;19.302;2023-06-14T12:18:32;3.38;;;1.90;;
58354;SDS011;44160;49.080;19.302;2023-06-14T12:21:05;3.10;;;1.63;;
58354;SDS011;44160;49.080;19.302;2023-06-14T12:26:14;2.63;;;1.83;;
58354;SDS011;44160;49.080;19.302;2023-06-14T12:28:41;4.10;;;1.55;;
58354;SDS011;44160;49.080;19.302;2023-06-14T12:31:08;1.65;;;1.40;;
58354;SDS011;44160;49.080;19.302;2023-06-14T12:33:34;2.10;;;1.67;;
58354;SDS011;44160;49.080;19.302;2023-06-14T12:36:02;9.75;;;2.00;;
58354;SDS011;44160;49.080;19.302;2023-06-14T12:38:30;5.47;;;2.20;;
58354;SDS011;44160;49.080;19.302;2023-06-14T12:40:56;3.00;;;1.73;;
58354;SDS011;44160;49.080;19.302;2023-06-14T12:43:23;2.33;;;1.98;;
58354;SDS011;44160;49.080;19.302;2023-06-14T12:45:49;7.20;;;2.85;;
58354;SDS011;44160;49.080;19.302;2023-06-14T12:48:16;3.38;;;1.90;;
58354;SDS011;44160;49.080;19.302;2023-06-14T12:50:42;2.53;;;1.83;;
58354;SDS011;44160;49.080;19.302;2023-06-14T12:53:08;2.30;;;2.10;;
58354;SDS011;44160;49.080;19.302;2023-06-14T12:55:34;3.17;;;1.83;;
58354;SDS011;44160;49.080;19.302;2023-06-14T12:58:00;2.88;;;1.75;;
58354;SDS011;44160;49.080;19.302;2023-06-14T13:00:27;3.08;;;1.80;;
58354;SDS011;44160;49.080;19.302;2023-06-14T13:02:54;6.30;;;2.20;;
58354;SDS011;44160;49.080;19.302;2023-06-14T13:05:21;4.10;;;1.80;;
58354;SDS011;44160;49.080;19.302;2023-06-14T13:07:47;2.95;;;1.80;;
58354;SDS011;44160;49.080;19.302;2023-06-14T13:10:14;3.97;;;2.40;;
58354;SDS011;44160;49.080;19.302;2023-06-14T13:12:40;1.75;;;1.60;;
58354;SDS011;44160;49.080;19.302;2023-06-14T13:15:06;4.85;;;1.80;;
58354;SDS011;44160;49.080;19.302;2023-06-14T13:17:33;2.83;;;1.67;;
58354;SDS011;44160;49.080;19.302;2023-06-14T13:20:03;4.07;;;1.95;;
58354;SDS011;44160;49.080;19.302;2023-06-14T13:22:29;2.53;;;2.10;;
58354;SDS011;44160;49.080;19.302;2023-06-14T13:24:55;3.25;;;1.73;;
58354;SDS011;44160;49.080;19.302;2023-06-14T13:27:22;2.42;;;1.80;;
58354;SDS011;44160;49.080;19.302;2023-06-14T13:29:49;4.97;;;2.10;;
58354;SDS011;44160;49.080;19.302;2023-06-14T13:32:15;3.83;;;1.95;;
58354;SDS011;44160;49.080;19.302;2023-06-14T13:34:45;10.70;;;2.95;;
58354;SDS011;44160;49.080;19.302;2023-06-14T13:37:11;7.93;;;3.33;;
58354;SDS011;44160;49.080;19.302;2023-06-14T13:39:37;2.75;;;1.88;;
58354;SDS011;44160;49.080;19.302;2023-06-14T13:42:03;3.83;;;2.00;;
58354;SDS011;44160;49.080;19.302;2023-06-14T13:44:30;12.95;;;2.40;;
58354;SDS011;44160;49.080;19.302;2023-06-14T13:46:57;5.53;;;2.20;;
58354;SDS011;44160;49.080;19.302;2023-06-14T13:49:23;4.30;;;2.47;;
58354;SDS011;44160;49.080;19.302;2023-06-14T13:51:50;5.35;;;2.42;;
58354;SDS011;44160;49.080;19.302;2023-06-14T13:54:19;3.35;;;2.30;;
58354;SDS011;44160;49.080;19.302;2023-06-14T13:56:45;4.60;;;2.20;;
58354;SDS011;44160;49.080;19.302;2023-06-14T13:59:11;4.38;;;2.20;;
58354;SDS011;44160;49.080;19.302;2023-06-14T14:01:38;2.65;;;1.95;;
58354;SDS011;44160;49.080;19.302;2023-06-14T14:04:04;2.85;;;2.35;;
58354;SDS011;44160;49.080;19.302;2023-06-14T14:06:30;3.08;;;1.65;;
58354;SDS011;44160;49.080;19.302;2023-06-14T14:08:57;3.95;;;2.00;;
58354;SDS011;44160;49.080;19.302;2023-06-14T14:11:23;3.13;;;1.98;;
58354;SDS011;44160;49.080;19.302;2023-06-14T14:13:49;7.97;;;2.30;;
58354;SDS011;44160;49.080;19.302;2023-06-14T14:16:15;3.38;;;2.38;;
58354;SDS011;44160;49.080;19.302;2023-06-14T14:18:41;12.30;;;4.00;;
58354;SDS011;44160;49.080;19.302;2023-06-14T14:21:17;7.70;;;2.83;;
58354;SDS011;44160;49.080;19.302;2023-06-14T14:23:43;5.68;;;2.03;;
58354;SDS011;44160;49.080;19.302;2023-06-14T14:26:10;3.50;;;2.45;;
58354;SDS011;44160;49.080;19.302;2023-06-14T14:28:36;4.82;;;2.50;;
58354;SDS011;44160;49.080;19.302;2023-06-14T14:31:03;5.68;;;2.13;;
58354;SDS011;44160;49.080;19.302;2023-06-14T14:33:29;4.07;;;2.05;;
58354;SDS011;44160;49.080;19.302;2023-06-14T14:35:55;6.22;;;2.10;;
58354;SDS011;44160;49.080;19.302;2023-06-14T14:38:22;4.57;;;2.20;;
58354;SDS011;44160;49.080;19.302;2023-06-14T14:40:48;4.75;;;2.35;;
58354;SDS011;44160;49.080;19.302;2023-06-14T14:43:14;4.78;;;2.60;;
58354;SDS011;44160;49.080;19.302;2023-06-14T14:45:40;4.15;;;2.65;;
58354;SDS011;44160;49.080;19.302;2023-06-14T14:48:07;5.95;;;2.60;;
58354;SDS011;44160;49.080;19.302;2023-06-14T14:50:36;3.72;;;2.85;;
58354;SDS011;44160;49.080;19.302;2023-06-14T14:53:07;6.90;;;3.38;;
58354;SDS011;44160;49.080;19.302;2023-06-14T14:55:36;9.02;;;2.55;;
58354;SDS011;44160;49.080;19.302;2023-06-14T14:58:04;5.10;;;2.95;;
58354;SDS011;44160;49.080;19.302;2023-06-14T15:00:32;4.70;;;2.90;;
58354;SDS011;44160;49.080;19.302;2023-06-14T15:02:58;4.35;;;3.65;;
58354;SDS011;44160;49.080;19.302;2023-06-14T15:05:24;4.72;;;3.17;;
58354;SDS011;44160;49.080;19.302;2023-06-14T15:07:51;4.40;;;2.83;;
58354;SDS011;44160;49.080;19.302;2023-06-14T15:10:20;7.28;;;3.17;;
58354;SDS011;44160;49.080;19.302;2023-06-14T15:15:15;5.88;;;2.88;;
58354;SDS011;44160;49.080;19.302;2023-06-14T15:17:41;3.65;;;2.70;;
58354;SDS011;44160;49.080;19.302;2023-06-14T15:20:08;3.85;;;2.70;;
58354;SDS011;44160;49.080;19.302;2023-06-14T15:22:34;13.02;;;3.20;;
58354;SDS011;44160;49.080;19.302;2023-06-14T15:25:00;5.55;;;2.70;;
58354;SDS011;44160;49.080;19.302;2023-06-14T15:27:27;6.70;;;3.30;;
58354;SDS011;44160;49.080;19.302;2023-06-14T15:29:53;4.00;;;2.83;;
58354;SDS011;44160;49.080;19.302;2023-06-14T15:32:19;6.03;;;2.83;;
58354;SDS011;44160;49.080;19.302;2023-06-14T15:34:48;5.65;;;2.80;;
58354;SDS011;44160;49.080;19.302;2023-06-14T15:37:14;5.47;;;2.30;;
58354;SDS011;44160;49.080;19.302;2023-06-14T15:39:40;2.83;;;2.38;;
58354;SDS011;44160;49.080;19.302;2023-06-14T15:42:07;4.78;;;2.90;;